Aeroporto :
LOGIN :

Iscrizione | Disclaimer

   EN    FR    IT 

 










Sommario :    VFR   VFR Marginale   IFR   IFR Intensivo   IFR Molto Intensivo
Visibilità : 
Base nubi : 
>= 8 km
>= 3000ft
5 / 8 km
1000 / 3000 ft
1500m / 5 km
500 / 1000 ft
800 / 1500m
200 / 500 ft
< 800m
< 200 ft
Simboli :   Temporali  Nebbia  Neve Forte  Precipitazioni Forti  Vento > 20 kt
SIGMETs :   Varie  Temporali  Ghiacco  Turbolenza  Onda orograficha  Ceneri Vulcaniche






- Altitudine del aeroporto : 604 ft
- Codice IATA : LCJ


EPLL - Lodz

ULTIMO METAR :
  • 070400Z 12003KT 9999 -SHRA BKN045CB 14/14 Q1009 RESHRA

METARs OBSOLETI :
  • 070330Z VRB02KT 9999 -SHRA BKN043CB 14/14 Q1008
  • 070300Z 23005KT 190V270 9999 FEW015 SCT030CB BKN046 14/14 Q1009
  • 070230Z 26003KT 180V340 9999 -SHRA BKN046CB 14/14 Q1009
  • 070200Z 23004KT 180V250 9999 BKN047 14/14 Q1009
  • 070130Z VRB01KT 9999 FEW050CB 13/13 Q1008

TAF TAF EPLL
Valido dal 07 a 00 ore il 08 a 00 ore UTC


062330Z 0700/0724 VRB02KT CAVOK
PROB40
TEMPO 0702/0706 SHRA BKN030CB
TEMPO 0710/0721 -SHRA BKN030CB
PROB40
TEMPO 0713/0720 VRB15G30KT 4000 TSRA BKN020CB
BECMG 0721/0724 3000 BR



MetMap, La meteo Aeronautica in un colpo d'occhio ! - Copyright ORBIFLY Dicembre 2007 - Disclaimer

ORBIFLY MET'MAP TEAM :

Programmazione e sviluppo : Alexandra Zaïnal
Concezione : Baudouin d'Aumeries
Aiuto per la programmazione : Marc-Olivier Méhu
Supporto tecnico e logistico : Manuel Goepfert
Aiuto per la traduzione : Arnaldo La Scala

Contatto : metmap@orbifly.com




FONTI E CREDITI :

   NOAA